Time;durP1;ratioP1;P1;durP2;ratioP2;P2;SDS_P1;SDS_P2;PMS_P1;PMS_P2;Temp;Humidity;BMP_temperature;BMP_pressure;BME280_temperature;BME280_humidity;BME280_pressure;Samples;Min_cycle;Max_cycle;Signal;HPM_P1;HPM_P2
2022/11/20 00:01:37;;;;;;;57.20;45.50;;;;;;;-2.63;58.86;100107.89;107733;1280;21980;-78
2022/11/20 00:04:05;;;;;;;60.30;45.90;;;;;;;-2.69;58.94;100108.31;108199;1278;21931;-78
2022/11/20 00:06:33;;;;;;;57.60;42.90;;;;;;;-2.75;59.11;100104.50;108355;1280;21932;-76
2022/11/20 00:09:01;;;;;;;56.60;42.40;;;;;;;-2.80;59.53;100101.89;108383;1277;21932;-79
2022/11/20 00:11:31;;;;;;;55.40;42.40;;;;;;;-2.85;59.44;100099.27;108418;1277;21949;-79
2022/11/20 00:14:02;;;;;;;55.40;41.40;;;;;;;-2.91;59.62;100098.85;108365;1277;23675;-78
2022/11/20 00:16:33;;;;;;;58.10;42.70;;;;;;;-3.00;59.72;100097.04;108308;1278;23609;-80
2022/11/20 00:19:02;;;;;;;57.30;43.50;;;;;;;-3.08;59.92;100102.20;107914;1286;23790;-77
2022/11/20 00:21:32;;;;;;;84.20;59.10;;;;;;;-3.15;60.08;100100.41;107909;1285;22076;-77
2022/11/20 00:24:00;;;;;;;85.20;59.90;;;;;;;-3.20;60.14;100097.95;107962;1283;21955;-78
2022/11/20 00:26:28;;;;;;;85.20;57.40;;;;;;;-3.25;60.29;100095.67;107986;1286;23068;-78
2022/11/20 00:28:59;;;;;;;73.40;49.10;;;;;;;-3.28;60.49;100098.02;108042;1283;21942;-79
2022/11/20 00:31:29;;;;;;;61.20;43.10;;;;;;;-3.32;60.62;100099.48;108032;1275;23093;-78
2022/11/20 00:33:57;;;;;;;53.70;38.80;;;;;;;-3.37;60.69;100101.98;108026;1282;21938;-78
2022/11/20 00:36:28;;;;;;;53.60;39.90;;;;;;;-3.38;60.76;100098.55;108007;1280;22710;-79
2022/11/20 00:38:58;;;;;;;55.20;39.20;;;;;;;-3.40;60.82;100099.04;108464;1280;23810;-77
2022/11/20 00:41:29;;;;;;;56.30;41.10;;;;;;;-3.43;60.89;100097.29;108322;1281;22295;-78
2022/11/20 00:43:57;;;;;;;53.90;39.90;;;;;;;-3.48;60.94;100094.82;108403;1279;23066;-78
2022/11/20 00:46:29;;;;;;;55.60;40.40;;;;;;;-3.53;61.17;100093.90;108372;1280;23671;-78
2022/11/20 00:49:00;;;;;;;51.70;37.40;;;;;;;-3.57;61.32;100093.83;108197;1281;22916;-77
2022/11/20 00:51:30;;;;;;;57.30;42.30;;;;;;;-3.62;61.45;100096.31;108376;1280;21922;-78
2022/11/20 00:53:59;;;;;;;56.30;38.60;;;;;;;-3.66;61.61;100099.84;108348;1281;23768;-77
2022/11/20 00:56:27;;;;;;;56.00;39.40;;;;;;;-3.73;61.86;100100.89;108293;1280;21934;-78
2022/11/20 00:58:55;;;;;;;51.80;37.80;;;;;;;-3.81;62.06;100103.14;107985;1286;21937;-78
2022/11/20 01:01:25;;;;;;;54.60;38.20;;;;;;;-3.90;62.25;100102.16;107688;1286;21950;-78
2022/11/20 01:03:57;;;;;;;54.60;39.10;;;;;;;-3.98;62.29;100104.08;107567;1288;21954;-77
2022/11/20 01:06:29;;;;;;;52.60;38.70;;;;;;;-4.01;62.36;100100.79;107088;1292;23671;-78
2022/11/20 01:09:02;;;;;;;53.50;40.70;;;;;;;-4.04;62.51;100099.71;107100;1294;22002;-77
2022/11/20 01:11:35;;;;;;;53.70;40.00;;;;;;;-4.05;62.72;100098.33;107221;1292;22099;-77
2022/11/20 01:14:09;;;;;;;57.80;40.80;;;;;;;-4.07;62.95;100095.75;106977;1296;23612;-78
2022/11/20 01:16:45;;;;;;;56.40;41.40;;;;;;;-4.08;63.06;100095.91;107200;1292;21955;-78
2022/11/20 01:19:21;;;;;;;52.40;38.50;;;;;;;-4.08;62.94;100095.91;107580;1290;23638;-78
2022/11/20 01:21:53;;;;;;;56.90;37.90;;;;;;;-4.07;62.99;100095.08;107675;1281;21933;-78
2022/11/20 01:24:22;;;;;;;54.10;38.50;;;;;;;-4.09;62.94;100095.20;108190;1281;23611;-78
2022/11/20 01:26:51;;;;;;;55.30;38.60;;;;;;;-4.13;63.09;100093.42;108052;1286;22661;-78
2022/11/20 01:29:24;;;;;;;54.80;37.90;;;;;;;-4.13;63.25;100093.77;107821;1285;22409;-78
2022/11/20 01:31:55;;;;;;;55.50;40.40;;;;;;;-4.11;63.38;100092.11;107737;1286;21952;-78
2022/11/20 01:34:27;;;;;;;52.50;38.40;;;;;;;-4.12;63.36;100092.77;107833;1282;22014;-78
2022/11/20 01:36:56;;;;;;;55.50;37.40;;;;;;;-4.14;63.45;100093.25;107820;1284;21935;-78
2022/11/20 01:39:26;;;;;;;54.00;40.10;;;;;;;-4.15;63.49;100091.86;107893;1286;21946;-79
2022/11/20 01:45:00;;;;;;;68.10;49.00;;;;;;;-4.21;63.62;100095.84;107968;1284;21971;-77
2022/11/20 01:47:46;;;;;;;69.10;50.50;;;;;;;-4.22;63.66;100093.10;108017;1286;23002;-78
2022/11/20 01:50:33;;;;;;;83.20;54.60;;;;;;;-4.20;63.76;100093.82;107832;1286;21943;-78
2022/11/20 01:53:08;;;;;;;72.10;45.90;;;;;;;-4.22;63.72;100097.18;108351;1282;21951;-78
2022/11/20 01:55:44;;;;;;;59.70;40.80;;;;;;;-4.23;63.78;100095.96;108185;1281;21991;-78
2022/11/20 01:58:13;;;;;;;58.00;41.70;;;;;;;-4.29;63.87;100093.49;107862;1286;23581;-78
2022/11/20 02:00:44;;;;;;;58.00;41.90;;;;;;;-4.34;63.97;100096.64;107971;1286;23693;-79
2022/11/20 02:03:19;;;;;;;60.60;41.70;;;;;;;-4.38;63.98;100091.97;107923;1286;22832;-77
2022/11/20 02:06:57;;;;;;;65.30;44.60;;;;;;;-4.40;64.00;100089.38;107936;1281;22011;-77
2022/11/20 02:09:25;;;;;;;60.70;42.80;;;;;;;-4.45;64.22;100093.70;107035;1295;22001;-76
2022/11/20 02:11:54;;;;;;;55.80;41.30;;;;;;;-4.46;64.34;100098.10;106974;1295;22031;-78
2022/11/20 02:14:24;;;;;;;62.90;43.60;;;;;;;-4.48;64.37;100100.45;106900;1298;22070;-77
2022/11/20 02:16:54;;;;;;;66.80;45.40;;;;;;;-4.49;64.46;100101.96;107346;1293;21948;-77
2022/11/20 02:19:29;;;;;;;59.70;41.30;;;;;;;-4.47;64.54;100100.80;107368;1292;22395;-77
2022/11/20 02:22:10;;;;;;;62.40;44.10;;;;;;;-4.45;64.57;100099.48;107126;1295;21949;-77
2022/11/20 02:24:41;;;;;;;56.80;42.60;;;;;;;-4.44;64.72;100098.99;107076;1295;22725;-77
2022/11/20 02:27:14;;;;;;;61.70;44.10;;;;;;;-4.43;64.75;100096.98;107106;1293;21946;-78
2022/11/20 02:29:53;;;;;;;;;;;;;;;-4.43;64.71;100097.14;107494;1292;23757;-78
2022/11/20 02:32:23;;;;;;;57.30;39.20;;;;;;;-4.53;64.82;100096.77;107039;1296;21954;-79
2022/11/20 02:34:52;;;;;;;57.00;43.20;;;;;;;-4.54;64.91;100096.41;107084;1296;23595;-77
2022/11/20 02:37:21;;;;;;;57.70;42.30;;;;;;;-4.51;64.98;100094.44;106960;1296;21962;-78
2022/11/20 02:39:52;;;;;;;60.90;45.70;;;;;;;-4.48;64.98;100098.73;107098;1293;21957;-79
2022/11/20 02:42:20;;;;;;;56.90;41.50;;;;;;;-4.47;64.99;100099.77;107303;1293;21947;-78
2022/11/20 02:44:48;;;;;;;63.70;45.00;;;;;;;-4.46;65.00;100095.73;107946;1286;22816;-79
2022/11/20 02:47:18;;;;;;;59.10;44.10;;;;;;;-4.42;65.14;100098.34;107957;1285;21938;-79
2022/11/20 02:49:46;;;;;;;59.50;45.50;;;;;;;-4.42;65.16;100094.62;108014;1280;21939;-79
2022/11/20 02:52:14;;;;;;;61.60;47.80;;;;;;;-4.42;65.09;100088.33;108362;1280;21930;-79
2022/11/20 02:54:42;;;;;;;64.60;46.30;;;;;;;-4.43;65.24;100089.67;108416;1279;22157;-79
2022/11/20 02:57:10;;;;;;;60.20;45.60;;;;;;;-4.42;65.30;100088.85;108177;1281;21925;-77
2022/11/20 02:59:37;;;;;;;60.00;43.90;;;;;;;-4.40;65.38;100092.09;108342;1272;23070;-79
2022/11/20 03:02:08;;;;;;;64.00;46.30;;;;;;;-4.38;65.37;100095.86;108265;1281;21932;-79
2022/11/20 03:04:36;;;;;;;64.00;48.90;;;;;;;-4.37;65.57;100093.86;108370;1281;22561;-80
2022/11/20 03:07:05;;;;;;;62.40;44.10;;;;;;;-4.34;65.61;100092.21;108379;1280;23583;-79
2022/11/20 03:09:33;;;;;;;70.40;50.50;;;;;;;-4.32;65.66;100082.73;108333;1281;21943;-78
2022/11/20 03:12:01;;;;;;;79.80;53.10;;;;;;;-4.27;65.74;100080.27;108350;1280;21918;-77
2022/11/20 03:14:29;;;;;;;76.10;50.40;;;;;;;-4.20;65.82;100082.27;107981;1283;21950;-78
2022/11/20 03:17:00;;;;;;;67.10;45.40;;;;;;;-4.15;65.82;100079.64;108052;1285;21950;-77
2022/11/20 03:19:28;;;;;;;67.80;47.00;;;;;;;-4.10;65.69;100084.64;107787;1286;23041;-77
2022/11/20 03:21:57;;;;;;;66.90;48.20;;;;;;;-4.06;65.77;100087.25;108008;1286;22082;-77
2022/11/20 03:24:27;;;;;;;65.10;47.30;;;;;;;-4.03;65.81;100086.98;107506;1292;22375;-78
2022/11/20 03:26:55;;;;;;;65.80;47.50;;;;;;;-3.99;65.75;100086.54;107588;1287;23689;-78
2022/11/20 03:29:23;;;;;;;59.70;43.80;;;;;;;-3.97;65.70;100082.16;107569;1289;22017;-78
2022/11/20 03:31:51;;;;;;;66.70;47.60;;;;;;;-3.94;65.69;100078.45;107604;1287;22211;-79
2022/11/20 03:34:19;;;;;;;65.50;48.30;;;;;;;-3.92;65.67;100080.88;107895;1285;23083;-78
2022/11/20 03:36:47;;;;;;;68.40;50.10;;;;;;;-3.89;65.74;100074.12;107879;1286;22071;-77
2022/11/20 03:39:17;;;;;;;70.80;52.60;;;;;;;-3.84;65.73;100076.24;107536;1287;21945;-78
2022/11/20 03:41:45;;;;;;;70.00;49.60;;;;;;;-3.80;65.72;100077.68;107643;1285;22710;-78
2022/11/20 03:44:12;;;;;;;65.50;49.70;;;;;;;-3.76;65.68;100080.10;107981;1283;23620;-77
2022/11/20 03:46:40;;;;;;;65.40;51.20;;;;;;;-3.71;65.75;100085.96;108033;1285;23191;-78
2022/11/20 03:49:08;;;;;;;65.50;46.80;;;;;;;-3.68;65.76;100087.73;107882;1280;23579;-78
2022/11/20 03:51:37;;;;;;;68.50;50.40;;;;;;;-3.67;65.66;100086.20;108035;1283;21937;-78
2022/11/20 03:54:08;;;;;;;64.30;48.40;;;;;;;-3.65;65.63;100085.89;107692;1280;22024;-77
2022/11/20 03:56:40;;;;;;;62.30;47.30;;;;;;;-3.64;65.61;100087.27;107608;1285;21982;-79
2022/11/20 03:59:10;;;;;;;67.30;50.10;;;;;;;-3.65;65.55;100090.33;108093;1280;24335;-78
2022/11/20 04:01:38;;;;;;;63.00;47.40;;;;;;;-3.66;65.50;100090.65;108195;1281;23674;-79
2022/11/20 04:04:06;;;;;;;56.40;43.60;;;;;;;-3.66;65.57;100089.79;107669;1289;22043;-78
2022/11/20 04:06:38;;;;;;;57.40;44.40;;;;;;;-3.64;65.51;100093.05;107739;1288;21946;-77
2022/11/20 04:09:06;;;;;;;61.70;46.20;;;;;;;-3.61;65.55;100091.06;107613;1285;23782;-77
2022/11/20 04:11:39;;;;;;;65.60;47.60;;;;;;;-3.60;65.48;100094.65;107699;1287;21940;-77
2022/11/20 04:14:15;;;;;;;63.40;46.80;;;;;;;-3.55;65.62;100094.89;107657;1282;21948;-76
2022/11/20 04:16:43;;;;;;;59.30;45.90;;;;;;;-3.50;65.58;100093.60;107966;1282;21916;-76
2022/11/20 04:19:15;;;;;;;60.50;45.90;;;;;;;-3.44;65.57;100093.02;107966;1285;23696;-79
2022/11/20 04:21:44;;;;;;;63.00;46.80;;;;;;;-3.41;65.45;100093.05;108054;1278;21923;-78
2022/11/20 04:24:12;;;;;;;70.90;50.00;;;;;;;-3.41;65.33;100096.12;108167;1280;21926;-78
2022/11/20 04:26:41;;;;;;;63.60;47.50;;;;;;;-3.44;65.27;100092.34;108228;1271;24293;-78
2022/11/20 04:29:11;;;;;;;59.20;44.90;;;;;;;-3.45;65.37;100090.63;108476;1277;24384;-77
2022/11/20 04:31:39;;;;;;;67.60;48.00;;;;;;;-3.46;65.36;100091.64;108386;1278;24110;-77
2022/11/20 04:34:07;;;;;;;63.40;46.20;;;;;;;-3.44;65.38;100093.52;108370;1280;23779;-79
2022/11/20 04:36:39;;;;;;;53.10;41.60;;;;;;;-3.40;65.51;100088.98;108343;1280;21932;-78
2022/11/20 04:39:15;;;;;;;60.90;44.90;;;;;;;-3.38;65.50;100087.52;108433;1278;21939;-79
2022/11/20 04:41:44;;;;;;;55.40;42.20;;;;;;;-3.38;65.43;100082.91;108019;1282;23008;-78
2022/11/20 04:44:12;;;;;;;54.30;40.20;;;;;;;-3.37;65.43;100085.45;107614;1282;21952;-79
2022/11/20 04:46:42;;;;;;;53.30;40.30;;;;;;;-3.36;65.40;100085.65;107973;1284;21944;-80
2022/11/20 04:49:11;;;;;;;54.00;39.50;;;;;;;-3.34;65.46;100084.66;107771;1283;22040;-79
2022/11/20 04:51:42;;;;;;;52.40;38.30;;;;;;;-3.30;65.49;100083.69;107984;1282;22025;-79
2022/11/20 04:54:11;;;;;;;49.30;38.40;;;;;;;-3.26;65.43;100079.99;107462;1289;21951;-80
2022/11/20 04:56:42;;;;;;;48.90;37.90;;;;;;;-3.24;65.43;100080.72;107458;1288;21945;-79
2022/11/20 04:59:10;;;;;;;48.00;38.10;;;;;;;-3.22;65.42;100077.33;107580;1287;21988;-79
2022/11/20 05:01:38;;;;;;;52.40;38.30;;;;;;;-3.23;65.36;100080.39;107532;1286;23070;-77
2022/11/20 05:04:06;;;;;;;53.90;39.50;;;;;;;-3.19;65.43;100082.48;107601;1289;23690;-78
2022/11/20 05:06:34;;;;;;;50.50;37.70;;;;;;;-3.15;65.46;100078.80;107629;1285;23076;-77
2022/11/20 05:09:05;;;;;;;54.60;39.20;;;;;;;-3.10;65.42;100074.60;107892;1286;21953;-78
2022/11/20 05:11:33;;;;;;;47.80;35.50;;;;;;;-3.06;65.41;100071.08;107523;1283;21974;-78
2022/11/20 05:14:01;;;;;;;44.20;35.50;;;;;;;-3.00;65.43;100065.02;107896;1281;22799;-77
2022/11/20 05:16:29;;;;;;;46.40;35.00;;;;;;;-2.93;65.42;100060.50;107973;1280;21924;-77
2022/11/20 05:18:57;;;;;;;46.70;35.60;;;;;;;-2.88;65.27;100058.54;108016;1280;23078;-78
2022/11/20 05:21:25;;;;;;;45.90;36.60;;;;;;;-2.84;65.12;100055.02;107951;1280;23112;-78
2022/11/20 05:23:58;;;;;;;49.30;37.90;;;;;;;-2.78;65.13;100055.94;108053;1281;22851;-79
2022/11/20 05:26:27;;;;;;;51.10;39.10;;;;;;;-2.71;65.12;100058.04;108228;1285;21940;-78
2022/11/20 05:28:55;;;;;;;56.50;41.40;;;;;;;-2.66;65.03;100058.95;108014;1278;23671;-78
2022/11/20 05:31:25;;;;;;;52.50;40.60;;;;;;;-2.64;64.85;100057.62;107941;1283;22038;-78
2022/11/20 05:33:57;;;;;;;53.80;40.10;;;;;;;-2.64;64.71;100058.81;107993;1282;21951;-77
2022/11/20 05:36:26;;;;;;;62.30;46.60;;;;;;;-2.64;64.65;100062.39;107734;1282;21950;-79
2022/11/20 05:38:56;;;;;;;56.70;42.20;;;;;;;-2.65;64.58;100062.03;107777;1283;23859;-79
2022/11/20 05:41:29;;;;;;;58.60;42.40;;;;;;;-2.66;64.47;100059.98;107950;1283;21941;-78
2022/11/20 05:44:01;;;;;;;56.80;42.90;;;;;;;-2.68;64.49;100059.10;107494;1286;21941;-79
2022/11/20 05:46:28;;;;;;;79.80;53.80;;;;;;;-2.69;64.49;100057.40;107586;1286;23919;-78
2022/11/20 05:48:58;;;;;;;65.40;48.80;;;;;;;-2.66;64.49;100054.36;107882;1286;21954;-77
2022/11/20 05:51:27;;;;;;;67.10;50.00;;;;;;;-2.62;64.41;100053.23;107638;1290;21941;-79
2022/11/20 05:53:58;;;;;;;63.40;46.00;;;;;;;-2.58;64.49;100049.69;107582;1292;21955;-78
2022/11/20 05:56:26;;;;;;;58.70;41.20;;;;;;;-2.51;64.52;100044.47;107437;1287;22787;-78
2022/11/20 05:58:54;;;;;;;52.50;38.10;;;;;;;-2.45;64.36;100045.39;107462;1286;21954;-79
2022/11/20 06:01:25;;;;;;;51.40;38.00;;;;;;;-2.40;64.23;100044.06;107702;1286;23609;-79
2022/11/20 06:03:54;;;;;;;45.30;33.40;;;;;;;-2.39;64.10;100035.90;108005;1282;22291;-79
2022/11/20 06:06:27;;;;;;;46.90;37.10;;;;;;;-2.35;63.98;100039.69;108088;1282;24295;-80
2022/11/20 06:08:58;;;;;;;51.20;37.50;;;;;;;-2.34;63.77;100044.13;107834;1282;21952;-77
2022/11/20 06:11:27;;;;;;;;;;;;;;;-2.33;63.80;100043.98;108337;1278;22900;-79
2022/11/20 06:13:58;;;;;;;49.00;35.30;;;;;;;-2.37;63.94;100040.19;108481;1277;21927;-78
2022/11/20 06:16:29;;;;;;;70.40;48.80;;;;;;;-2.34;63.86;100038.16;108705;1277;23074;-80
2022/11/20 06:19:04;;;;;;;57.50;43.50;;;;;;;-2.33;63.61;100039.70;108525;1278;22412;-79
2022/11/20 06:21:34;;;;;;;49.00;37.80;;;;;;;-2.41;63.17;100036.39;108470;1278;22013;-79
2022/11/20 06:24:02;;;;;;;53.80;40.20;;;;;;;-2.52;63.07;100041.56;108525;1278;21941;-79
2022/11/20 06:26:30;;;;;;;51.20;37.60;;;;;;;-2.62;63.10;100047.94;108406;1280;21925;-79
2022/11/20 06:28:58;;;;;;;51.50;38.90;;;;;;;-2.73;63.11;100052.23;108450;1280;21920;-78
2022/11/20 06:31:28;;;;;;;53.80;38.10;;;;;;;-2.84;63.22;100056.02;108420;1263;21951;-79
2022/11/20 06:33:56;;;;;;;48.30;37.30;;;;;;;-2.93;63.39;100049.78;108542;1277;21926;-78
2022/11/20 06:36:27;;;;;;;50.60;37.90;;;;;;;-2.97;63.56;100050.94;108416;1272;21988;-78
2022/11/20 06:38:59;;;;;;;56.50;39.10;;;;;;;-2.95;63.77;100053.01;108320;1278;22393;-78
2022/11/20 06:41:30;;;;;;;;;;;;;;;-2.94;63.88;100051.14;108457;1276;21908;-78
2022/11/20 06:44:00;;;;;;;59.40;41.90;;;;;;;-3.00;63.95;100050.73;108463;1278;21933;-79
2022/11/20 06:46:29;;;;;;;62.50;46.90;;;;;;;-2.99;64.03;100049.55;108446;1275;21935;-78
2022/11/20 06:48:58;;;;;;;65.80;47.00;;;;;;;-2.93;64.18;100051.66;108437;1278;21926;-77
2022/11/20 06:51:29;;;;;;;63.60;44.30;;;;;;;-2.88;63.97;100047.80;108218;1278;23104;-78
2022/11/20 06:53:57;;;;;;;55.40;42.20;;;;;;;-2.88;63.91;100044.05;108132;1281;23075;-78
2022/11/20 06:56:25;;;;;;;66.80;49.30;;;;;;;-2.88;63.89;100045.25;108193;1280;23762;-78
2022/11/20 06:58:56;;;;;;;65.50;46.90;;;;;;;-2.87;63.85;100046.80;108086;1280;22923;-80
2022/11/20 07:01:26;;;;;;;64.60;50.70;;;;;;;-2.84;63.99;100041.39;108159;1273;23703;-79
2022/11/20 07:03:56;;;;;;;64.20;47.30;;;;;;;-2.78;64.05;100043.66;108285;1280;22254;-78
2022/11/20 07:06:26;;;;;;;66.90;52.80;;;;;;;-2.71;64.11;100041.02;108384;1281;22941;-79
2022/11/20 07:08:54;;;;;;;81.60;60.60;;;;;;;-2.66;64.03;100033.91;108138;1281;23749;-79
2022/11/20 07:11:25;;;;;;;65.00;48.50;;;;;;;-2.62;63.90;100033.45;108549;1278;21907;-79
2022/11/20 07:13:53;;;;;;;70.60;52.70;;;;;;;-2.61;63.69;100029.54;108649;1276;23702;-80
2022/11/20 07:16:21;;;;;;;71.40;51.30;;;;;;;-2.59;63.59;100030.41;108569;1278;23091;-80
2022/11/20 07:18:51;;;;;;;63.60;51.10;;;;;;;-2.57;63.59;100026.02;108650;1278;21945;-79
2022/11/20 07:21:21;;;;;;;75.70;55.20;;;;;;;-2.52;63.52;100028.95;108561;1276;23089;-78
2022/11/20 07:23:49;;;;;;;62.60;49.40;;;;;;;-2.47;63.63;100030.02;108452;1272;22378;-79
2022/11/20 07:26:17;;;;;;;63.30;46.40;;;;;;;-2.37;63.60;100029.44;108647;1278;22161;-78
2022/11/20 07:28:47;;;;;;;65.40;50.30;;;;;;;-2.30;63.53;100025.94;108161;1280;21943;-79
2022/11/20 07:31:15;;;;;;;65.90;49.10;;;;;;;-2.22;63.61;100027.02;108249;1280;21895;-82
2022/11/20 07:33:47;;;;;;;62.30;49.70;;;;;;;-2.14;63.43;100023.68;108424;1280;21921;-79
2022/11/20 07:36:14;;;;;;;71.10;52.60;;;;;;;-2.08;63.40;100023.55;108152;1281;21940;-78
2022/11/20 07:38:42;;;;;;;73.10;56.00;;;;;;;-1.98;63.55;100022.96;108260;1278;23611;-78
2022/11/20 07:41:10;;;;;;;71.70;53.50;;;;;;;-1.84;63.51;100018.80;108163;1280;23054;-77
2022/11/20 07:43:38;;;;;;;71.90;57.40;;;;;;;-1.76;63.16;100020.73;108183;1284;22706;-77
2022/11/20 07:46:10;;;;;;;77.20;57.80;;;;;;;-1.73;62.76;100014.28;108208;1281;21950;-77
2022/11/20 07:48:39;;;;;;;77.80;57.20;;;;;;;-1.74;62.55;100013.41;108283;1281;23690;-77
2022/11/20 07:51:07;;;;;;;65.80;52.00;;;;;;;-1.75;62.39;100009.48;108246;1281;23048;-79
2022/11/20 07:53:35;;;;;;;68.10;53.30;;;;;;;-1.77;62.09;100005.20;108559;1278;22729;-79
2022/11/20 07:56:04;;;;;;;73.70;53.00;;;;;;;-1.78;62.15;100008.44;108314;1277;22302;-80
2022/11/20 07:58:34;;;;;;;68.00;51.10;;;;;;;-1.77;62.08;100011.17;108344;1277;23085;-80
2022/11/20 08:01:08;;;;;;;67.90;54.40;;;;;;;-1.72;62.26;100009.84;108676;1277;21929;-79
2022/11/20 08:03:37;;;;;;;70.20;52.40;;;;;;;-1.62;62.37;100009.05;108444;1276;21950;-78
2022/11/20 08:06:06;;;;;;;71.90;53.20;;;;;;;-1.53;62.34;100003.48;108722;1277;21933;-79
2022/11/20 08:08:34;;;;;;;71.80;53.10;;;;;;;-1.43;62.18;100000.12;108187;1280;23669;-79
2022/11/20 08:14:12;;;;;;;54.20;40.10;;;;;;;-1.30;61.33;99989.09;108508;1277;22992;-82
2022/11/20 08:16:42;;;;;;;60.10;43.10;;;;;;;-1.30;61.19;99989.77;108653;1277;21986;-82
2022/11/20 08:19:14;;;;;;;64.00;45.30;;;;;;;-1.27;61.42;99990.30;108773;1276;22007;-79
2022/11/20 08:21:43;;;;;;;55.60;42.90;;;;;;;-1.23;61.08;99992.36;108246;1283;22346;-78
2022/11/20 08:24:15;;;;;;;57.80;43.90;;;;;;;-1.21;60.91;99990.15;108399;1283;22016;-84
2022/11/20 08:26:46;;;;;;;50.80;38.70;;;;;;;-1.20;60.73;99986.05;107739;1289;22007;-80
2022/11/20 08:29:14;;;;;;;58.70;41.20;;;;;;;-1.14;60.91;99985.57;107482;1289;21965;-78
2022/11/20 08:31:42;;;;;;;63.50;45.50;;;;;;;-1.00;61.15;99983.40;107592;1288;23630;-79
2022/11/20 08:34:34;;;;;;;58.60;43.50;;;;;;;-0.87;60.82;99984.46;107711;1288;24171;-79
2022/11/20 08:37:03;;;;;;;61.90;43.90;;;;;;;-0.78;60.55;99980.05;106915;1293;22033;-79
2022/11/20 08:39:35;;;;;;;55.30;42.20;;;;;;;-0.68;60.49;99980.23;107137;1286;21993;-80
2022/11/20 08:42:08;;;;;;;58.10;45.30;;;;;;;-0.51;60.84;99979.26;106709;1300;22369;-80
2022/11/20 08:44:37;;;;;;;57.40;46.00;;;;;;;-0.33;60.43;99979.09;106913;1294;21988;-80
2022/11/20 08:47:05;;;;;;;49.50;39.00;;;;;;;-0.20;60.05;99985.77;107692;1288;23080;-80
2022/11/20 08:49:33;;;;;;;63.70;50.30;;;;;;;-0.08;59.89;99988.00;107394;1292;22060;-83
2022/11/20 08:52:02;;;;;;;56.20;43.40;;;;;;;0.07;59.63;99984.23;107068;1297;21989;-82
2022/11/20 08:54:30;;;;;;;52.30;40.20;;;;;;;0.13;58.55;99979.24;106878;1297;21965;-82
2022/11/20 08:57:01;;;;;;;55.00;40.50;;;;;;;0.13;58.21;99979.09;106788;1297;21975;-82
2022/11/20 08:59:35;;;;;;;54.50;42.50;;;;;;;0.12;57.65;99980.79;107052;1291;22052;-81
2022/11/20 09:02:28;;;;;;;55.40;45.30;;;;;;;0.13;58.05;99973.60;107806;1286;23209;-82
2022/11/20 09:06:16;;;;;;;66.10;50.00;;;;;;;0.24;57.96;99969.65;107925;1286;24160;-84
2022/11/20 09:09:06;;;;;;;51.20;39.90;;;;;;;0.32;57.47;99970.33;108191;1282;23501;-80
2022/11/20 09:11:36;;;;;;;70.10;53.10;;;;;;;0.41;57.50;99968.77;108341;1277;21941;-77
2022/11/20 09:14:04;;;;;;;53.30;41.50;;;;;;;0.49;57.57;99963.44;108432;1270;21932;-77
2022/11/20 09:16:32;;;;;;;54.20;43.20;;;;;;;0.59;57.54;99964.24;108158;1281;22328;-77
2022/11/20 09:19:00;;;;;;;53.80;43.00;;;;;;;0.70;57.54;99959.25;108061;1280;21952;-78
2022/11/20 09:21:48;;;;;;;58.10;43.50;;;;;;;0.82;57.34;99952.52;108018;1280;23294;-77
2022/11/20 09:24:29;;;;;;;55.50;45.40;;;;;;;0.94;57.14;99950.41;108196;1283;22149;-77
2022/11/20 09:26:58;;;;;;;48.00;40.80;;;;;;;1.02;56.38;99948.14;108092;1283;23074;-76
2022/11/20 09:29:34;;;;;;;54.20;41.20;;;;;;;1.08;56.31;99949.30;108179;1282;23770;-77
2022/11/20 09:32:11;;;;;;;53.30;40.10;;;;;;;1.20;56.45;99948.72;108136;1282;21951;-77
2022/11/20 09:34:40;;;;;;;55.40;43.30;;;;;;;1.35;56.45;99944.52;108167;1277;23625;-78
2022/11/20 09:37:08;;;;;;;46.80;38.00;;;;;;;1.49;56.01;99944.92;108327;1276;23675;-77
2022/11/20 09:39:38;;;;;;;53.20;39.30;;;;;;;1.54;55.37;99940.45;108446;1278;23600;-77
2022/11/20 09:42:42;;;;;;;47.30;39.20;;;;;;;1.60;55.08;99943.31;108256;1275;21991;-77
2022/11/20 09:45:39;;;;;;;51.30;39.20;;;;;;;1.65;54.81;99943.09;108342;1278;23778;-76
2022/11/20 09:48:34;;;;;;;52.50;42.30;;;;;;;1.76;54.96;99936.83;108079;1280;23071;-78
2022/11/20 09:51:22;;;;;;;47.20;37.80;;;;;;;1.84;54.32;99938.65;108405;1283;21949;-78
2022/11/20 09:54:21;;;;;;;47.50;40.40;;;;;;;1.95;54.28;99935.98;108189;1281;22500;-78
2022/11/20 09:56:59;;;;;;;45.20;35.20;;;;;;;2.08;54.18;99933.45;108123;1283;21963;-78
2022/11/20 09:59:48;;;;;;;38.20;30.60;;;;;;;2.23;53.97;99934.69;108215;1282;23070;-78
2022/11/20 10:02:24;;;;;;;45.80;35.80;;;;;;;2.35;53.63;99930.09;108265;1280;22832;-78
2022/11/20 10:05:03;;;;;;;39.50;32.80;;;;;;;2.49;53.46;99928.20;108140;1282;22806;-78
2022/11/20 10:07:47;;;;;;;36.60;31.00;;;;;;;2.62;53.10;99921.70;108347;1276;21920;-78
2022/11/20 10:15:53;;;;;;;35.50;28.60;;;;;;;2.96;52.60;99919.55;108331;1282;23650;-77
2022/11/20 10:18:45;;;;;;;34.40;28.50;;;;;;;3.15;52.12;99917.05;108293;1268;21974;-78
2022/11/20 10:21:57;;;;;;;57.90;40.10;;;;;;;3.31;51.55;99916.66;108322;1281;23348;-78
2022/11/20 10:24:52;;;;;;;49.80;35.60;;;;;;;3.52;51.59;99917.02;108483;1269;23016;-79
2022/11/20 10:28:19;;;;;;;66.40;40.00;;;;;;;3.80;51.06;99922.25;108148;1283;22060;-77
2022/11/20 10:30:57;;;;;;;55.40;37.40;;;;;;;4.05;50.61;99918.88;108197;1282;23948;-78
2022/11/20 10:33:30;;;;;;;53.30;39.00;;;;;;;4.31;50.26;99918.91;108228;1282;21936;-79
2022/11/20 10:36:36;;;;;;;50.40;36.00;;;;;;;4.68;49.93;99911.30;107553;1281;21961;-78
2022/11/20 10:39:47;;;;;;;33.20;29.40;;;;;;;4.99;48.74;99906.67;108342;1282;24372;-77
2022/11/20 10:42:42;;;;;;;39.90;35.70;;;;;;;5.17;48.19;99904.39;108104;1287;21963;-78
2022/11/20 10:45:26;;;;;;;33.10;28.90;;;;;;;5.39;47.74;99903.16;108027;1286;21988;-78
2022/11/20 10:48:16;;;;;;;28.90;25.70;;;;;;;5.41;45.20;99903.65;108158;1286;21958;-79
2022/11/20 10:51:26;;;;;;;34.50;28.50;;;;;;;5.30;45.86;99897.00;108243;1286;23032;-77
2022/11/20 10:54:09;;;;;;;34.80;30.60;;;;;;;5.18;45.69;99896.59;107752;1292;22268;-77
2022/11/20 10:56:42;;;;;;;34.10;28.00;;;;;;;5.05;45.70;99890.84;107825;1292;23154;-78
2022/11/20 10:59:59;;;;;;;25.60;22.70;;;;;;;5.00;45.83;99891.98;107654;1289;22005;-78
2022/11/20 11:02:49;;;;;;;32.30;28.30;;;;;;;4.90;45.51;99889.45;108240;1284;23119;-79
2022/11/20 11:05:54;;;;;;;32.90;27.90;;;;;;;4.67;44.95;99885.63;107845;1284;23202;-77
2022/11/20 11:08:21;;;;;;;29.40;24.70;;;;;;;4.18;44.03;99882.98;108013;1284;21961;-77
2022/11/20 11:11:01;;;;;;;27.70;23.30;;;;;;;3.80;44.54;99890.73;107907;1286;21960;-77
2022/11/20 11:13:30;;;;;;;46.10;31.60;;;;;;;3.55;44.97;99885.13;108439;1281;21955;-77
2022/11/20 11:15:58;;;;;;;66.30;40.20;;;;;;;3.48;45.67;99884.56;108438;1281;23146;-78
2022/11/20 11:18:34;;;;;;;75.30;47.40;;;;;;;3.45;45.90;99883.74;108483;1277;21940;-78
2022/11/20 11:21:04;;;;;;;42.80;33.60;;;;;;;3.43;45.95;99881.36;108753;1277;21959;-78
2022/11/20 11:23:42;;;;;;;44.60;33.20;;;;;;;3.33;45.60;99883.42;108667;1277;21945;-77
2022/11/20 11:26:23;;;;;;;42.00;32.50;;;;;;;3.21;45.98;99881.55;108755;1274;22334;-78
2022/11/20 11:28:54;;;;;;;42.50;32.30;;;;;;;3.12;46.12;99876.69;108765;1277;23638;-77
2022/11/20 11:31:29;;;;;;;41.30;32.00;;;;;;;3.02;46.07;99873.73;108674;1277;22432;-77
2022/11/20 11:34:13;;;;;;;34.30;28.80;;;;;;;2.90;46.29;99867.73;108753;1277;23690;-78
2022/11/20 11:36:42;;;;;;;41.50;33.90;;;;;;;2.81;46.62;99863.91;108735;1277;21953;-79
2022/11/20 11:39:17;;;;;;;43.20;35.90;;;;;;;2.78;47.04;99857.92;108426;1278;22636;-78
2022/11/20 11:41:45;;;;;;;45.10;36.70;;;;;;;2.77;47.28;99857.42;108714;1276;21951;-78
2022/11/20 11:47:37;;;;;;;48.40;37.50;;;;;;;2.70;47.78;99844.96;108726;1265;22880;-79
2022/11/20 11:50:08;;;;;;;45.10;37.80;;;;;;;2.67;47.89;99841.59;108740;1277;22013;-77